sensor_id;sensor_type;location;lat;lon;timestamp;P1;durP1;ratioP1;P2;durP2;ratioP2
15699;SDS011;7950;42.744;23.174;2022-11-15T00:00:12;55.63;;;31.27;;
15699;SDS011;7950;42.744;23.174;2022-11-15T00:02:42;54.27;;;30.90;;
15699;SDS011;7950;42.744;23.174;2022-11-15T00:05:10;53.60;;;30.07;;
15699;SDS011;7950;42.744;23.174;2022-11-15T00:07:38;54.03;;;30.33;;
15699;SDS011;7950;42.744;23.174;2022-11-15T00:10:21;54.67;;;29.50;;
15699;SDS011;7950;42.744;23.174;2022-11-15T00:12:49;56.67;;;29.77;;
15699;SDS011;7950;42.744;23.174;2022-11-15T00:15:17;54.50;;;29.37;;
15699;SDS011;7950;42.744;23.174;2022-11-15T00:20:41;50.07;;;29.73;;
15699;SDS011;7950;42.744;23.174;2022-11-15T00:23:09;54.07;;;29.97;;
15699;SDS011;7950;42.744;23.174;2022-11-15T00:25:38;52.80;;;30.13;;
15699;SDS011;7950;42.744;23.174;2022-11-15T00:28:07;60.07;;;30.60;;
15699;SDS011;7950;42.744;23.174;2022-11-15T00:30:35;57.43;;;30.07;;
15699;SDS011;7950;42.744;23.174;2022-11-15T00:33:03;52.10;;;28.97;;
15699;SDS011;7950;42.744;23.174;2022-11-15T00:35:34;49.73;;;29.10;;
15699;SDS011;7950;42.744;23.174;2022-11-15T00:38:02;49.73;;;28.60;;
15699;SDS011;7950;42.744;23.174;2022-11-15T00:40:30;51.20;;;28.00;;
15699;SDS011;7950;42.744;23.174;2022-11-15T00:42:59;51.70;;;28.03;;
15699;SDS011;7950;42.744;23.174;2022-11-15T00:45:27;48.60;;;28.80;;
15699;SDS011;7950;42.744;23.174;2022-11-15T00:47:55;51.33;;;27.90;;
15699;SDS011;7950;42.744;23.174;2022-11-15T00:50:23;57.13;;;27.93;;
15699;SDS011;7950;42.744;23.174;2022-11-15T00:52:53;51.93;;;28.67;;
15699;SDS011;7950;42.744;23.174;2022-11-15T00:55:21;45.80;;;27.50;;
15699;SDS011;7950;42.744;23.174;2022-11-15T00:57:49;42.63;;;25.80;;
15699;SDS011;7950;42.744;23.174;2022-11-15T01:00:18;43.67;;;27.00;;
15699;SDS011;7950;42.744;23.174;2022-11-15T01:02:47;45.53;;;25.80;;
15699;SDS011;7950;42.744;23.174;2022-11-15T01:05:15;45.17;;;27.07;;
15699;SDS011;7950;42.744;23.174;2022-11-15T01:07:43;49.20;;;26.60;;
15699;SDS011;7950;42.744;23.174;2022-11-15T01:10:13;45.97;;;26.80;;
15699;SDS011;7950;42.744;23.174;2022-11-15T01:12:41;49.43;;;27.37;;
15699;SDS011;7950;42.744;23.174;2022-11-15T01:15:10;44.40;;;26.13;;
15699;SDS011;7950;42.744;23.174;2022-11-15T01:17:38;52.33;;;27.77;;
15699;SDS011;7950;42.744;23.174;2022-11-15T01:23:07;44.23;;;24.87;;
15699;SDS011;7950;42.744;23.174;2022-11-15T01:25:36;50.57;;;26.43;;
15699;SDS011;7950;42.744;23.174;2022-11-15T01:30:58;54.37;;;26.67;;
15699;SDS011;7950;42.744;23.174;2022-11-15T01:33:27;44.70;;;24.90;;
15699;SDS011;7950;42.744;23.174;2022-11-15T01:35:56;47.47;;;25.63;;
15699;SDS011;7950;42.744;23.174;2022-11-15T01:38:24;46.73;;;25.67;;
15699;SDS011;7950;42.744;23.174;2022-11-15T01:40:54;45.70;;;26.20;;
15699;SDS011;7950;42.744;23.174;2022-11-15T01:43:23;46.47;;;25.37;;
15699;SDS011;7950;42.744;23.174;2022-11-15T01:45:55;50.40;;;26.53;;
15699;SDS011;7950;42.744;23.174;2022-11-15T01:48:29;43.17;;;25.27;;
15699;SDS011;7950;42.744;23.174;2022-11-15T01:50:59;42.10;;;25.03;;
15699;SDS011;7950;42.744;23.174;2022-11-15T01:53:32;47.07;;;24.97;;
15699;SDS011;7950;42.744;23.174;2022-11-15T01:56:05;44.03;;;26.33;;
15699;SDS011;7950;42.744;23.174;2022-11-15T01:58:38;44.30;;;25.07;;
15699;SDS011;7950;42.744;23.174;2022-11-15T02:01:08;42.80;;;23.40;;
15699;SDS011;7950;42.744;23.174;2022-11-15T02:06:37;42.20;;;23.73;;
15699;SDS011;7950;42.744;23.174;2022-11-15T02:09:07;42.77;;;24.70;;
15699;SDS011;7950;42.744;23.174;2022-11-15T02:11:36;43.30;;;23.97;;
15699;SDS011;7950;42.744;23.174;2022-11-15T02:14:05;46.50;;;24.57;;
15699;SDS011;7950;42.744;23.174;2022-11-15T02:16:35;44.53;;;24.37;;
15699;SDS011;7950;42.744;23.174;2022-11-15T02:19:14;43.67;;;24.70;;
15699;SDS011;7950;42.744;23.174;2022-11-15T02:25:08;42.57;;;23.47;;
15699;SDS011;7950;42.744;23.174;2022-11-15T02:30:45;41.70;;;23.10;;
15699;SDS011;7950;42.744;23.174;2022-11-15T02:33:21;45.67;;;25.33;;
15699;SDS011;7950;42.744;23.174;2022-11-15T02:35:59;46.27;;;24.40;;
15699;SDS011;7950;42.744;23.174;2022-11-15T02:38:31;43.73;;;24.20;;
15699;SDS011;7950;42.744;23.174;2022-11-15T02:41:16;45.90;;;24.40;;
15699;SDS011;7950;42.744;23.174;2022-11-15T02:43:53;43.17;;;23.23;;
15699;SDS011;7950;42.744;23.174;2022-11-15T02:46:49;45.67;;;23.13;;
15699;SDS011;7950;42.744;23.174;2022-11-15T02:49:39;38.07;;;22.80;;
15699;SDS011;7950;42.744;23.174;2022-11-15T02:52:14;45.37;;;23.67;;
15699;SDS011;7950;42.744;23.174;2022-11-15T02:54:52;44.90;;;23.67;;
15699;SDS011;7950;42.744;23.174;2022-11-15T02:57:27;40.60;;;22.57;;
15699;SDS011;7950;42.744;23.174;2022-11-15T03:00:07;39.57;;;23.50;;
15699;SDS011;7950;42.744;23.174;2022-11-15T03:02:41;40.30;;;22.77;;
15699;SDS011;7950;42.744;23.174;2022-11-15T03:05:19;37.53;;;21.27;;
15699;SDS011;7950;42.744;23.174;2022-11-15T03:07:53;39.13;;;23.17;;
15699;SDS011;7950;42.744;23.174;2022-11-15T03:10:31;40.97;;;22.63;;
15699;SDS011;7950;42.744;23.174;2022-11-15T03:13:06;41.10;;;23.83;;
15699;SDS011;7950;42.744;23.174;2022-11-15T03:15:45;38.90;;;22.73;;
15699;SDS011;7950;42.744;23.174;2022-11-15T03:18:23;45.50;;;25.80;;
15699;SDS011;7950;42.744;23.174;2022-11-15T03:23:51;46.63;;;24.80;;
15699;SDS011;7950;42.744;23.174;2022-11-15T03:26:21;45.10;;;23.70;;
15699;SDS011;7950;42.744;23.174;2022-11-15T03:28:53;42.97;;;23.47;;
15699;SDS011;7950;42.744;23.174;2022-11-15T03:31:25;46.30;;;25.63;;
15699;SDS011;7950;42.744;23.174;2022-11-15T03:34:20;47.43;;;26.00;;
15699;SDS011;7950;42.744;23.174;2022-11-15T03:36:53;56.23;;;26.53;;
15699;SDS011;7950;42.744;23.174;2022-11-15T03:39:22;43.90;;;24.53;;
15699;SDS011;7950;42.744;23.174;2022-11-15T03:41:54;42.90;;;24.00;;
15699;SDS011;7950;42.744;23.174;2022-11-15T03:44:35;47.53;;;24.07;;
15699;SDS011;7950;42.744;23.174;2022-11-15T03:47:09;59.93;;;25.60;;
15699;SDS011;7950;42.744;23.174;2022-11-15T03:49:44;54.73;;;26.53;;
15699;SDS011;7950;42.744;23.174;2022-11-15T03:52:18;49.60;;;25.37;;
15699;SDS011;7950;42.744;23.174;2022-11-15T03:54:48;51.53;;;26.10;;
15699;SDS011;7950;42.744;23.174;2022-11-15T03:57:18;47.67;;;25.07;;
15699;SDS011;7950;42.744;23.174;2022-11-15T03:59:46;45.73;;;24.10;;
15699;SDS011;7950;42.744;23.174;2022-11-15T04:02:15;52.97;;;26.90;;
15699;SDS011;7950;42.744;23.174;2022-11-15T04:04:44;52.83;;;26.07;;
15699;SDS011;7950;42.744;23.174;2022-11-15T04:07:12;53.37;;;26.07;;
15699;SDS011;7950;42.744;23.174;2022-11-15T04:09:41;51.43;;;25.70;;
15699;SDS011;7950;42.744;23.174;2022-11-15T04:12:23;56.27;;;27.10;;
15699;SDS011;7950;42.744;23.174;2022-11-15T04:14:58;55.67;;;25.40;;
15699;SDS011;7950;42.744;23.174;2022-11-15T04:17:37;53.43;;;24.90;;
15699;SDS011;7950;42.744;23.174;2022-11-15T04:20:10;50.90;;;25.23;;
15699;SDS011;7950;42.744;23.174;2022-11-15T04:22:57;75.57;;;29.97;;
15699;SDS011;7950;42.744;23.174;2022-11-15T04:25:44;59.47;;;28.73;;
15699;SDS011;7950;42.744;23.174;2022-11-15T04:28:13;62.03;;;32.73;;
15699;SDS011;7950;42.744;23.174;2022-11-15T04:30:41;76.60;;;37.33;;
15699;SDS011;7950;42.744;23.174;2022-11-15T04:33:10;60.77;;;31.00;;
15699;SDS011;7950;42.744;23.174;2022-11-15T04:35:57;67.80;;;34.40;;
15699;SDS011;7950;42.744;23.174;2022-11-15T04:38:43;58.07;;;25.77;;
15699;SDS011;7950;42.744;23.174;2022-11-15T04:41:11;58.93;;;27.63;;
15699;SDS011;7950;42.744;23.174;2022-11-15T04:43:39;60.43;;;26.07;;
15699;SDS011;7950;42.744;23.174;2022-11-15T04:46:07;60.57;;;26.93;;
15699;SDS011;7950;42.744;23.174;2022-11-15T04:48:36;56.63;;;25.63;;
15699;SDS011;7950;42.744;23.174;2022-11-15T04:51:12;52.27;;;25.07;;
15699;SDS011;7950;42.744;23.174;2022-11-15T04:53:40;54.87;;;24.00;;
15699;SDS011;7950;42.744;23.174;2022-11-15T04:56:08;59.27;;;27.87;;
15699;SDS011;7950;42.744;23.174;2022-11-15T04:58:36;60.33;;;28.70;;
15699;SDS011;7950;42.744;23.174;2022-11-15T05:01:06;51.33;;;25.17;;
15699;SDS011;7950;42.744;23.174;2022-11-15T05:03:35;61.43;;;28.40;;
15699;SDS011;7950;42.744;23.174;2022-11-15T05:06:22;65.03;;;27.43;;
15699;SDS011;7950;42.744;23.174;2022-11-15T05:08:51;57.60;;;27.00;;
15699;SDS011;7950;42.744;23.174;2022-11-15T05:11:19;64.43;;;27.03;;
15699;SDS011;7950;42.744;23.174;2022-11-15T05:13:48;63.10;;;27.97;;
15699;SDS011;7950;42.744;23.174;2022-11-15T05:16:16;94.23;;;33.07;;
15699;SDS011;7950;42.744;23.174;2022-11-15T05:21:39;95.53;;;42.50;;
15699;SDS011;7950;42.744;23.174;2022-11-15T05:24:09;88.93;;;40.00;;
15699;SDS011;7950;42.744;23.174;2022-11-15T05:26:37;73.70;;;34.10;;
15699;SDS011;7950;42.744;23.174;2022-11-15T05:29:05;60.70;;;29.83;;
15699;SDS011;7950;42.744;23.174;2022-11-15T05:31:34;75.50;;;32.33;;
15699;SDS011;7950;42.744;23.174;2022-11-15T05:34:07;70.70;;;30.30;;
15699;SDS011;7950;42.744;23.174;2022-11-15T05:36:36;67.17;;;28.40;;
15699;SDS011;7950;42.744;23.174;2022-11-15T05:39:07;65.80;;;28.63;;
15699;SDS011;7950;42.744;23.174;2022-11-15T05:41:35;74.37;;;30.77;;
15699;SDS011;7950;42.744;23.174;2022-11-15T05:44:07;69.27;;;32.30;;
15699;SDS011;7950;42.744;23.174;2022-11-15T05:46:39;64.03;;;30.63;;
15699;SDS011;7950;42.744;23.174;2022-11-15T05:49:10;106.87;;;43.57;;
15699;SDS011;7950;42.744;23.174;2022-11-15T05:51:40;86.83;;;39.97;;
15699;SDS011;7950;42.744;23.174;2022-11-15T05:54:13;68.57;;;34.40;;
15699;SDS011;7950;42.744;23.174;2022-11-15T05:56:41;61.83;;;32.17;;
15699;SDS011;7950;42.744;23.174;2022-11-15T05:59:10;69.73;;;33.50;;
15699;SDS011;7950;42.744;23.174;2022-11-15T06:01:39;71.47;;;32.60;;
15699;SDS011;7950;42.744;23.174;2022-11-15T06:04:08;74.47;;;34.80;;
15699;SDS011;7950;42.744;23.174;2022-11-15T06:06:36;70.97;;;32.73;;
15699;SDS011;7950;42.744;23.174;2022-11-15T06:09:08;61.63;;;31.83;;
15699;SDS011;7950;42.744;23.174;2022-11-15T06:11:37;65.40;;;31.83;;
15699;SDS011;7950;42.744;23.174;2022-11-15T06:14:06;62.23;;;31.00;;
15699;SDS011;7950;42.744;23.174;2022-11-15T06:16:34;58.30;;;30.40;;
15699;SDS011;7950;42.744;23.174;2022-11-15T06:19:02;51.43;;;26.77;;
15699;SDS011;7950;42.744;23.174;2022-11-15T06:21:30;53.27;;;27.13;;
15699;SDS011;7950;42.744;23.174;2022-11-15T06:23:59;54.60;;;28.37;;
15699;SDS011;7950;42.744;23.174;2022-11-15T06:26:27;51.00;;;25.57;;
15699;SDS011;7950;42.744;23.174;2022-11-15T06:40:54;38.87;;;24.13;;
15699;SDS011;7950;42.744;23.174;2022-11-15T06:46:21;42.37;;;22.23;;
15699;SDS011;7950;42.744;23.174;2022-11-15T06:48:50;42.93;;;21.13;;
15699;SDS011;7950;42.744;23.174;2022-11-15T06:51:18;45.30;;;23.70;;
15699;SDS011;7950;42.744;23.174;2022-11-15T06:53:47;45.33;;;22.73;;
15699;SDS011;7950;42.744;23.174;2022-11-15T06:56:17;46.10;;;24.20;;
15699;SDS011;7950;42.744;23.174;2022-11-15T06:58:51;54.20;;;28.17;;
15699;SDS011;7950;42.744;23.174;2022-11-15T07:01:19;53.43;;;24.33;;
15699;SDS011;7950;42.744;23.174;2022-11-15T07:03:48;44.60;;;23.10;;
15699;SDS011;7950;42.744;23.174;2022-11-15T07:06:16;41.57;;;23.87;;
15699;SDS011;7950;42.744;23.174;2022-11-15T07:08:44;49.27;;;25.03;;
15699;SDS011;7950;42.744;23.174;2022-11-15T07:11:12;38.77;;;22.17;;
15699;SDS011;7950;42.744;23.174;2022-11-15T07:13:42;40.13;;;21.43;;
15699;SDS011;7950;42.744;23.174;2022-11-15T07:16:10;43.33;;;21.53;;
15699;SDS011;7950;42.744;23.174;2022-11-15T07:18:39;39.10;;;22.23;;
15699;SDS011;7950;42.744;23.174;2022-11-15T07:21:08;32.80;;;19.03;;
15699;SDS011;7950;42.744;23.174;2022-11-15T07:23:37;34.97;;;20.00;;
15699;SDS011;7950;42.744;23.174;2022-11-15T07:26:06;30.47;;;18.57;;
15699;SDS011;7950;42.744;23.174;2022-11-15T07:28:35;33.60;;;18.97;;
15699;SDS011;7950;42.744;23.174;2022-11-15T07:31:06;39.03;;;20.77;;
15699;SDS011;7950;42.744;23.174;2022-11-15T07:33:35;28.73;;;17.47;;
15699;SDS011;7950;42.744;23.174;2022-11-15T07:36:04;37.60;;;20.40;;
15699;SDS011;7950;42.744;23.174;2022-11-15T07:38:34;41.30;;;22.90;;
15699;SDS011;7950;42.744;23.174;2022-11-15T07:41:08;44.30;;;24.57;;
15699;SDS011;7950;42.744;23.174;2022-11-15T07:43:37;44.83;;;24.43;;
15699;SDS011;7950;42.744;23.174;2022-11-15T07:46:07;44.20;;;22.43;;
15699;SDS011;7950;42.744;23.174;2022-11-15T07:48:37;41.37;;;23.67;;
15699;SDS011;7950;42.744;23.174;2022-11-15T07:51:11;45.33;;;23.80;;
15699;SDS011;7950;42.744;23.174;2022-11-15T07:53:40;43.47;;;23.33;;
15699;SDS011;7950;42.744;23.174;2022-11-15T07:56:09;41.20;;;21.23;;
15699;SDS011;7950;42.744;23.174;2022-11-15T07:58:38;40.53;;;21.60;;
15699;SDS011;7950;42.744;23.174;2022-11-15T08:01:08;44.73;;;24.47;;
15699;SDS011;7950;42.744;23.174;2022-11-15T08:03:39;41.20;;;22.90;;
15699;SDS011;7950;42.744;23.174;2022-11-15T08:06:08;43.33;;;22.23;;
15699;SDS011;7950;42.744;23.174;2022-11-15T08:08:36;47.53;;;25.93;;
15699;SDS011;7950;42.744;23.174;2022-11-15T08:11:04;38.37;;;22.03;;
15699;SDS011;7950;42.744;23.174;2022-11-15T08:13:32;37.90;;;22.00;;
15699;SDS011;7950;42.744;23.174;2022-11-15T08:16:01;34.90;;;20.73;;
15699;SDS011;7950;42.744;23.174;2022-11-15T08:18:33;35.77;;;19.60;;
15699;SDS011;7950;42.744;23.174;2022-11-15T08:21:02;33.77;;;19.90;;
15699;SDS011;7950;42.744;23.174;2022-11-15T08:23:31;33.03;;;19.23;;
15699;SDS011;7950;42.744;23.174;2022-11-15T08:26:05;37.10;;;20.33;;
15699;SDS011;7950;42.744;23.174;2022-11-15T08:28:33;41.70;;;23.03;;
15699;SDS011;7950;42.744;23.174;2022-11-15T08:31:02;40.60;;;22.70;;
15699;SDS011;7950;42.744;23.174;2022-11-15T08:33:31;36.60;;;20.90;;
15699;SDS011;7950;42.744;23.174;2022-11-15T08:36:01;38.77;;;21.77;;
15699;SDS011;7950;42.744;23.174;2022-11-15T08:38:29;44.30;;;24.00;;
15699;SDS011;7950;42.744;23.174;2022-11-15T08:41:00;44.73;;;24.40;;
15699;SDS011;7950;42.744;23.174;2022-11-15T08:43:30;45.33;;;23.77;;
15699;SDS011;7950;42.744;23.174;2022-11-15T08:45:58;46.20;;;24.03;;
15699;SDS011;7950;42.744;23.174;2022-11-15T08:49:08;73.63;;;26.90;;
15699;SDS011;7950;42.744;23.174;2022-11-15T08:51:36;50.60;;;26.90;;
15699;SDS011;7950;42.744;23.174;2022-11-15T08:54:04;72.80;;;29.57;;
15699;SDS011;7950;42.744;23.174;2022-11-15T08:56:32;44.60;;;24.57;;
15699;SDS011;7950;42.744;23.174;2022-11-15T08:59:00;44.93;;;24.93;;
15699;SDS011;7950;42.744;23.174;2022-11-15T09:01:29;99.83;;;29.67;;
15699;SDS011;7950;42.744;23.174;2022-11-15T09:03:59;57.27;;;27.23;;
15699;SDS011;7950;42.744;23.174;2022-11-15T09:06:28;42.60;;;24.07;;
15699;SDS011;7950;42.744;23.174;2022-11-15T09:08:57;48.30;;;25.63;;
15699;SDS011;7950;42.744;23.174;2022-11-15T09:11:25;43.00;;;23.10;;
15699;SDS011;7950;42.744;23.174;2022-11-15T09:13:53;44.50;;;24.17;;
15699;SDS011;7950;42.744;23.174;2022-11-15T09:16:22;45.13;;;24.07;;
15699;SDS011;7950;42.744;23.174;2022-11-15T09:21:45;47.50;;;24.57;;
15699;SDS011;7950;42.744;23.174;2022-11-15T09:24:13;55.97;;;28.90;;
15699;SDS011;7950;42.744;23.174;2022-11-15T09:26:41;55.07;;;27.07;;
15699;SDS011;7950;42.744;23.174;2022-11-15T09:29:27;52.40;;;25.53;;
15699;SDS011;7950;42.744;23.174;2022-11-15T09:31:55;48.23;;;25.27;;
15699;SDS011;7950;42.744;23.174;2022-11-15T09:34:23;54.90;;;28.47;;
15699;SDS011;7950;42.744;23.174;2022-11-15T09:37:07;58.43;;;29.67;;
15699;SDS011;7950;42.744;23.174;2022-11-15T09:39:36;56.33;;;29.23;;
15699;SDS011;7950;42.744;23.174;2022-11-15T09:42:16;54.60;;;29.23;;
15699;SDS011;7950;42.744;23.174;2022-11-15T09:45:03;51.53;;;27.07;;
15699;SDS011;7950;42.744;23.174;2022-11-15T09:47:50;58.67;;;28.77;;
15699;SDS011;7950;42.744;23.174;2022-11-15T10:01:34;39.53;;;25.40;;
15699;SDS011;7950;42.744;23.174;2022-11-15T10:04:09;50.87;;;27.93;;
15699;SDS011;7950;42.744;23.174;2022-11-15T10:06:38;48.47;;;26.73;;
15699;SDS011;7950;42.744;23.174;2022-11-15T10:09:13;41.20;;;24.33;;
15699;SDS011;7950;42.744;23.174;2022-11-15T10:11:49;53.90;;;27.27;;
15699;SDS011;7950;42.744;23.174;2022-11-15T10:14:18;44.47;;;24.80;;
15699;SDS011;7950;42.744;23.174;2022-11-15T10:16:56;47.47;;;25.90;;
15699;SDS011;7950;42.744;23.174;2022-11-15T10:19:38;42.17;;;25.30;;
15699;SDS011;7950;42.744;23.174;2022-11-15T10:22:21;41.40;;;24.03;;
15699;SDS011;7950;42.744;23.174;2022-11-15T10:24:59;42.30;;;23.50;;
15699;SDS011;7950;42.744;23.174;2022-11-15T10:27:38;47.50;;;26.93;;
15699;SDS011;7950;42.744;23.174;2022-11-15T10:30:10;46.53;;;25.23;;
15699;SDS011;7950;42.744;23.174;2022-11-15T10:32:45;47.63;;;26.30;;
15699;SDS011;7950;42.744;23.174;2022-11-15T10:35:19;43.90;;;24.17;;
15699;SDS011;7950;42.744;23.174;2022-11-15T10:37:56;46.20;;;26.37;;
15699;SDS011;7950;42.744;23.174;2022-11-15T10:40:41;39.27;;;23.90;;
15699;SDS011;7950;42.744;23.174;2022-11-15T10:43:28;46.27;;;25.80;;
15699;SDS011;7950;42.744;23.174;2022-11-15T10:45:57;41.43;;;25.50;;
15699;SDS011;7950;42.744;23.174;2022-11-15T10:49:12;51.57;;;27.90;;
15699;SDS011;7950;42.744;23.174;2022-11-15T10:51:44;58.50;;;31.33;;
15699;SDS011;7950;42.744;23.174;2022-11-15T10:54:17;68.63;;;34.27;;
15699;SDS011;7950;42.744;23.174;2022-11-15T10:56:50;56.10;;;30.83;;
15699;SDS011;7950;42.744;23.174;2022-11-15T10:59:22;59.80;;;31.23;;
15699;SDS011;7950;42.744;23.174;2022-11-15T11:04:59;64.00;;;33.57;;
15699;SDS011;7950;42.744;23.174;2022-11-15T11:07:29;64.70;;;34.30;;
15699;SDS011;7950;42.744;23.174;2022-11-15T11:13:14;80.23;;;39.20;;
15699;SDS011;7950;42.744;23.174;2022-11-15T11:15:51;90.07;;;43.33;;
15699;SDS011;7950;42.744;23.174;2022-11-15T11:18:23;90.80;;;44.23;;
15699;SDS011;7950;42.744;23.174;2022-11-15T11:20:58;83.73;;;41.07;;
15699;SDS011;7950;42.744;23.174;2022-11-15T11:23:38;91.67;;;44.93;;
15699;SDS011;7950;42.744;23.174;2022-11-15T11:26:23;86.03;;;40.80;;
15699;SDS011;7950;42.744;23.174;2022-11-15T11:29:07;83.10;;;40.37;;
15699;SDS011;7950;42.744;23.174;2022-11-15T11:31:56;93.20;;;46.23;;
15699;SDS011;7950;42.744;23.174;2022-11-15T11:34:34;115.20;;;51.33;;
15699;SDS011;7950;42.744;23.174;2022-11-15T11:37:12;96.60;;;46.70;;
15699;SDS011;7950;42.744;23.174;2022-11-15T11:39:51;100.77;;;49.03;;
15699;SDS011;7950;42.744;23.174;2022-11-15T11:45:41;100.20;;;47.87;;
15699;SDS011;7950;42.744;23.174;2022-11-15T11:48:21;110.03;;;51.83;;
15699;SDS011;7950;42.744;23.174;2022-11-15T11:51:01;107.63;;;51.13;;
15699;SDS011;7950;42.744;23.174;2022-11-15T11:56:31;118.77;;;58.73;;
15699;SDS011;7950;42.744;23.174;2022-11-15T11:59:05;113.30;;;52.43;;
15699;SDS011;7950;42.744;23.174;2022-11-15T12:01:49;109.17;;;52.57;;
15699;SDS011;7950;42.744;23.174;2022-11-15T12:07:17;115.90;;;55.87;;
15699;SDS011;7950;42.744;23.174;2022-11-15T12:09:53;109.73;;;53.03;;
15699;SDS011;7950;42.744;23.174;2022-11-15T12:12:27;111.27;;;52.47;;
15699;SDS011;7950;42.744;23.174;2022-11-15T12:15:03;124.13;;;57.40;;
15699;SDS011;7950;42.744;23.174;2022-11-15T12:17:39;120.50;;;57.60;;
15699;SDS011;7950;42.744;23.174;2022-11-15T12:20:15;115.90;;;57.97;;
15699;SDS011;7950;42.744;23.174;2022-11-15T12:22:48;125.97;;;60.43;;
15699;SDS011;7950;42.744;23.174;2022-11-15T12:25:24;114.30;;;57.30;;
15699;SDS011;7950;42.744;23.174;2022-11-15T12:28:06;117.70;;;56.60;;
15699;SDS011;7950;42.744;23.174;2022-11-15T12:30:43;106.37;;;54.27;;
15699;SDS011;7950;42.744;23.174;2022-11-15T12:33:29;118.50;;;57.33;;
15699;SDS011;7950;42.744;23.174;2022-11-15T12:36:00;104.97;;;54.50;;
15699;SDS011;7950;42.744;23.174;2022-11-15T12:47:27;107.43;;;55.03;;
15699;SDS011;7950;42.744;23.174;2022-11-15T12:49:55;110.67;;;55.03;;
15699;SDS011;7950;42.744;23.174;2022-11-15T12:52:23;107.37;;;52.13;;
15699;SDS011;7950;42.744;23.174;2022-11-15T12:54:53;96.37;;;52.67;;
15699;SDS011;7950;42.744;23.174;2022-11-15T12:57:40;92.67;;;51.37;;
15699;SDS011;7950;42.744;23.174;2022-11-15T13:03:19;91.97;;;50.77;;
15699;SDS011;7950;42.744;23.174;2022-11-15T13:15:38;88.43;;;47.67;;
15699;SDS011;7950;42.744;23.174;2022-11-15T13:24:37;77.37;;;44.83;;
15699;SDS011;7950;42.744;23.174;2022-11-15T13:27:09;77.70;;;43.97;;
15699;SDS011;7950;42.744;23.174;2022-11-15T13:29:43;71.27;;;42.43;;
15699;SDS011;7950;42.744;23.174;2022-11-15T13:32:11;73.37;;;43.10;;
15699;SDS011;7950;42.744;23.174;2022-11-15T13:34:43;71.53;;;43.00;;
15699;SDS011;7950;42.744;23.174;2022-11-15T13:37:28;68.67;;;41.17;;
15699;SDS011;7950;42.744;23.174;2022-11-15T13:40:10;73.47;;;41.23;;
15699;SDS011;7950;42.744;23.174;2022-11-15T13:42:46;60.63;;;36.20;;
15699;SDS011;7950;42.744;23.174;2022-11-15T13:45:15;62.63;;;37.40;;
15699;SDS011;7950;42.744;23.174;2022-11-15T13:47:50;59.53;;;36.57;;
15699;SDS011;7950;42.744;23.174;2022-11-15T13:50:23;76.77;;;41.60;;
15699;SDS011;7950;42.744;23.174;2022-11-15T13:52:56;67.27;;;39.90;;
15699;SDS011;7950;42.744;23.174;2022-11-15T13:55:26;69.30;;;38.43;;
15699;SDS011;7950;42.744;23.174;2022-11-15T13:57:56;75.03;;;42.60;;
15699;SDS011;7950;42.744;23.174;2022-11-15T14:00:27;70.97;;;41.87;;
15699;SDS011;7950;42.744;23.174;2022-11-15T14:03:05;65.00;;;39.33;;
15699;SDS011;7950;42.744;23.174;2022-11-15T14:05:42;61.53;;;37.80;;
15699;SDS011;7950;42.744;23.174;2022-11-15T14:08:21;75.87;;;41.47;;
15699;SDS011;7950;42.744;23.174;2022-11-15T14:11:07;71.17;;;39.67;;
15699;SDS011;7950;42.744;23.174;2022-11-15T14:13:37;59.47;;;35.73;;
15699;SDS011;7950;42.744;23.174;2022-11-15T14:16:15;60.33;;;35.90;;
15699;SDS011;7950;42.744;23.174;2022-11-15T14:18:46;62.43;;;38.73;;
15699;SDS011;7950;42.744;23.174;2022-11-15T14:21:26;63.93;;;37.07;;
15699;SDS011;7950;42.744;23.174;2022-11-15T14:26:43;60.77;;;36.50;;
15699;SDS011;7950;42.744;23.174;2022-11-15T14:32:10;62.00;;;35.80;;
15699;SDS011;7950;42.744;23.174;2022-11-15T14:34:40;56.13;;;33.93;;
15699;SDS011;7950;42.744;23.174;2022-11-15T14:37:16;57.57;;;34.40;;
15699;SDS011;7950;42.744;23.174;2022-11-15T14:39:48;59.43;;;35.70;;
15699;SDS011;7950;42.744;23.174;2022-11-15T14:42:16;57.17;;;34.40;;
15699;SDS011;7950;42.744;23.174;2022-11-15T14:44:45;61.00;;;34.93;;
15699;SDS011;7950;42.744;23.174;2022-11-15T14:47:14;58.87;;;35.73;;
15699;SDS011;7950;42.744;23.174;2022-11-15T14:49:43;61.67;;;37.07;;
15699;SDS011;7950;42.744;23.174;2022-11-15T14:52:19;60.87;;;35.03;;
15699;SDS011;7950;42.744;23.174;2022-11-15T14:54:58;77.63;;;38.23;;
15699;SDS011;7950;42.744;23.174;2022-11-15T14:57:28;59.13;;;36.37;;
15699;SDS011;7950;42.744;23.174;2022-11-15T14:59:57;65.43;;;36.50;;
15699;SDS011;7950;42.744;23.174;2022-11-15T15:02:26;66.27;;;36.60;;
15699;SDS011;7950;42.744;23.174;2022-11-15T15:04:54;62.70;;;36.23;;
15699;SDS011;7950;42.744;23.174;2022-11-15T15:07:28;69.63;;;38.43;;
15699;SDS011;7950;42.744;23.174;2022-11-15T15:09:57;71.33;;;37.63;;
15699;SDS011;7950;42.744;23.174;2022-11-15T15:12:45;63.33;;;37.00;;
15699;SDS011;7950;42.744;23.174;2022-11-15T15:15:15;67.10;;;37.13;;
15699;SDS011;7950;42.744;23.174;2022-11-15T15:17:45;85.07;;;47.43;;
15699;SDS011;7950;42.744;23.174;2022-11-15T15:20:14;165.70;;;86.33;;
15699;SDS011;7950;42.744;23.174;2022-11-15T15:22:44;179.03;;;93.03;;
15699;SDS011;7950;42.744;23.174;2022-11-15T15:25:20;122.00;;;67.90;;
15699;SDS011;7950;42.744;23.174;2022-11-15T15:27:49;82.57;;;46.53;;
15699;SDS011;7950;42.744;23.174;2022-11-15T15:30:17;85.93;;;45.67;;
15699;SDS011;7950;42.744;23.174;2022-11-15T15:32:46;77.20;;;42.20;;
15699;SDS011;7950;42.744;23.174;2022-11-15T15:35:15;77.17;;;43.67;;
15699;SDS011;7950;42.744;23.174;2022-11-15T15:37:46;74.43;;;42.23;;
15699;SDS011;7950;42.744;23.174;2022-11-15T15:40:16;75.00;;;42.73;;
15699;SDS011;7950;42.744;23.174;2022-11-15T15:42:46;71.47;;;41.07;;
15699;SDS011;7950;42.744;23.174;2022-11-15T15:45:15;71.43;;;41.47;;
15699;SDS011;7950;42.744;23.174;2022-11-15T15:47:44;72.57;;;39.00;;
15699;SDS011;7950;42.744;23.174;2022-11-15T15:50:18;69.63;;;38.90;;
15699;SDS011;7950;42.744;23.174;2022-11-15T15:52:51;66.73;;;38.23;;
15699;SDS011;7950;42.744;23.174;2022-11-15T15:55:20;76.13;;;41.77;;
15699;SDS011;7950;42.744;23.174;2022-11-15T15:57:49;76.43;;;45.70;;
15699;SDS011;7950;42.744;23.174;2022-11-15T16:00:18;77.17;;;42.43;;
15699;SDS011;7950;42.744;23.174;2022-11-15T16:02:47;70.47;;;39.60;;
15699;SDS011;7950;42.744;23.174;2022-11-15T16:05:15;73.73;;;40.07;;
15699;SDS011;7950;42.744;23.174;2022-11-15T16:07:44;66.77;;;37.47;;
15699;SDS011;7950;42.744;23.174;2022-11-15T16:10:22;66.50;;;39.30;;
15699;SDS011;7950;42.744;23.174;2022-11-15T16:12:52;74.20;;;42.80;;
15699;SDS011;7950;42.744;23.174;2022-11-15T16:15:22;64.50;;;37.23;;
15699;SDS011;7950;42.744;23.174;2022-11-15T16:17:52;76.33;;;41.47;;
15699;SDS011;7950;42.744;23.174;2022-11-15T16:20:33;78.90;;;43.67;;
15699;SDS011;7950;42.744;23.174;2022-11-15T16:23:03;98.30;;;56.27;;
15699;SDS011;7950;42.744;23.174;2022-11-15T16:28:24;94.97;;;50.23;;
15699;SDS011;7950;42.744;23.174;2022-11-15T16:31:03;86.80;;;48.33;;
15699;SDS011;7950;42.744;23.174;2022-11-15T16:36:56;79.30;;;44.20;;
15699;SDS011;7950;42.744;23.174;2022-11-15T16:39:25;72.03;;;41.83;;